Time;durP1;ratioP1;P1;durP2;ratioP2;P2;SDS_P1;SDS_P2;PMS_P1;PMS_P2;Temp;Humidity;BMP_temperature;BMP_pressure;BME280_temperature;BME280_humidity;BME280_pressure;Samples;Min_cycle;Max_cycle;Signal;HPM_P1;HPM_P2
2021/10/11 00:00:29;;;;;;;16.15;13.45;;;2.80;99.90;;;;;;4958365;28;20066;-76
2021/10/11 00:02:54;;;;;;;17.02;13.15;;;2.70;99.90;;;;;;4948047;28;20494;-75
2021/10/11 00:05:21;;;;;;;14.52;13.00;;;2.90;99.90;;;;;;4962852;28;20556;-75
2021/10/11 00:07:47;;;;;;;13.85;12.27;;;2.60;99.90;;;;;;4965773;28;20402;-75
2021/10/11 00:10:19;;;;;;;14.60;13.05;;;2.60;99.90;;;;;;4961036;28;20034;-75
2021/10/11 00:12:48;;;;;;;14.90;13.40;;;2.70;99.90;;;;;;4955966;28;20038;-75
2021/10/11 00:15:15;;;;;;;15.05;12.45;;;2.70;99.90;;;;;;4967801;28;20613;-75
2021/10/11 00:17:41;;;;;;;15.80;13.32;;;2.70;99.90;;;;;;4947848;28;20253;-75
2021/10/11 00:20:07;;;;;;;14.38;12.60;;;2.80;99.90;;;;;;4949202;28;20478;-75
2021/10/11 00:22:32;;;;;;;13.40;12.00;;;2.50;99.90;;;;;;4963709;28;20023;-76
2021/10/11 00:24:58;;;;;;;14.20;12.68;;;2.40;99.90;;;;;;4947243;28;20121;-75
2021/10/11 00:27:23;;;;;;;14.18;11.93;;;2.40;99.90;;;;;;4936887;29;20485;-75
2021/10/11 00:29:49;;;;;;;14.05;12.32;;;2.50;99.90;;;;;;4961984;28;20050;-74
2021/10/11 00:32:14;;;;;;;12.95;11.55;;;2.50;99.90;;;;;;4944183;28;20393;-74
2021/10/11 00:34:40;;;;;;;13.70;12.32;;;2.50;99.90;;;;;;4964472;28;20508;-75
2021/10/11 00:37:06;;;;;;;13.40;11.73;;;2.40;99.90;;;;;;4964032;28;20035;-76
2021/10/11 00:39:31;;;;;;;15.27;12.23;;;2.50;99.90;;;;;;4964136;28;20098;-76
2021/10/11 00:41:57;;;;;;;15.93;13.27;;;2.60;99.90;;;;;;4964058;28;20051;-76
2021/10/11 00:44:22;;;;;;;17.75;14.15;;;2.60;99.90;;;;;;4962588;28;20540;-74
2021/10/11 00:46:48;;;;;;;16.98;13.80;;;2.80;99.90;;;;;;4947784;28;20027;-74
2021/10/11 00:49:13;;;;;;;15.32;12.85;;;2.70;99.90;;;;;;4946865;29;20023;-76
2021/10/11 00:51:39;;;;;;;16.67;12.82;;;2.60;99.90;;;;;;4956403;28;20027;-74
2021/10/11 00:54:05;;;;;;;18.25;13.68;;;2.70;99.90;;;;;;4956719;28;20082;-75
2021/10/11 00:56:31;;;;;;;17.42;13.05;;;2.70;99.90;;;;;;4956518;29;20034;-74
2021/10/11 00:58:57;;;;;;;15.48;13.88;;;2.60;99.90;;;;;;4939457;29;20087;-73
2021/10/11 01:01:22;;;;;;;18.50;15.63;;;2.60;99.90;;;;;;4938996;29;20057;-73
2021/10/11 01:03:48;;;;;;;14.90;12.90;;;2.50;99.90;;;;;;4956574;29;20093;-73
2021/10/11 01:06:14;;;;;;;14.23;12.73;;;2.20;99.90;;;;;;4956362;28;20158;-74
2021/10/11 01:08:41;;;;;;;14.90;12.90;;;2.30;99.90;;;;;;4939209;28;20071;-74
2021/10/11 01:11:06;;;;;;;13.75;12.00;;;2.30;99.90;;;;;;4969173;28;20034;-74
2021/10/11 01:13:32;;;;;;;13.23;11.25;;;2.30;99.90;;;;;;4956418;29;20028;-74
2021/10/11 01:15:58;;;;;;;16.05;12.50;;;2.40;99.90;;;;;;4959085;28;20037;-76
2021/10/11 01:18:23;;;;;;;13.60;12.02;;;2.40;99.90;;;;;;4965755;28;20034;-76
2021/10/11 01:20:49;;;;;;;13.77;11.82;;;2.50;99.90;;;;;;4955990;29;20110;-76
2021/10/11 01:23:14;;;;;;;14.63;12.23;;;2.60;99.90;;;;;;4956269;28;20043;-76
2021/10/11 01:25:40;;;;;;;14.02;12.40;;;2.70;99.90;;;;;;4938903;29;20035;-76
2021/10/11 01:28:05;;;;;;;13.73;12.32;;;2.80;99.90;;;;;;4955990;28;20035;-75
2021/10/11 01:30:31;;;;;;;15.02;13.00;;;2.80;99.90;;;;;;4956218;28;20148;-76
2021/10/11 01:32:57;;;;;;;17.30;13.30;;;2.60;99.90;;;;;;4955955;29;20102;-74
2021/10/11 01:35:28;;;;;;;14.52;11.73;;;2.30;99.90;;;;;;4938872;29;20570;-75
2021/10/11 01:37:54;;;;;;;15.30;12.30;;;2.30;99.90;;;;;;4951356;29;20402;-75
2021/10/11 01:40:20;;;;;;;13.63;11.75;;;2.40;99.90;;;;;;4955612;28;20076;-75
2021/10/11 01:42:47;;;;;;;13.38;12.07;;;2.50;99.90;;;;;;4954992;28;20029;-74
2021/10/11 01:45:13;;;;;;;14.77;13.18;;;2.60;99.90;;;;;;4955515;29;20079;-74
2021/10/11 01:47:38;;;;;;;13.77;12.38;;;2.50;99.90;;;;;;4955544;29;20027;-74
2021/10/11 01:50:05;;;;;;;15.05;12.90;;;2.30;99.90;;;;;;4955692;29;20139;-74
2021/10/11 01:52:30;;;;;;;14.07;12.57;;;2.20;99.90;;;;;;4955422;28;20031;-74
2021/10/11 01:54:56;;;;;;;16.08;13.52;;;2.10;99.90;;;;;;4955563;29;20035;-75
2021/10/11 01:57:21;;;;;;;18.02;14.77;;;2.10;99.90;;;;;;4955492;28;20019;-75
2021/10/11 01:59:47;;;;;;;16.02;14.10;;;1.90;99.90;;;;;;4938035;28;20371;-74
2021/10/11 02:02:12;;;;;;;15.15;13.65;;;1.70;99.90;;;;;;4938138;29;20105;-74
2021/10/11 02:04:38;;;;;;;17.45;15.65;;;1.50;99.90;;;;;;4955374;29;20102;-74
2021/10/11 02:07:03;;;;;;;15.98;13.93;;;1.40;99.90;;;;;;4955268;29;20032;-75
2021/10/11 02:09:29;;;;;;;17.25;14.95;;;1.20;99.90;;;;;;4958551;28;20500;-75
2021/10/11 02:11:55;;;;;;;17.75;15.75;;;1.10;99.90;;;;;;4964799;28;20028;-76
2021/10/11 02:14:20;;;;;;;19.00;15.60;;;1.20;99.90;;;;;;4955232;29;20114;-76
2021/10/11 02:16:46;;;;;;;16.58;14.70;;;1.30;99.90;;;;;;4947096;28;20069;-75
2021/10/11 02:19:11;;;;;;;21.48;19.25;;;1.40;99.90;;;;;;4941471;29;20031;-76
2021/10/11 02:21:37;;;;;;;17.83;15.30;;;1.20;99.90;;;;;;4954713;29;20071;-75
2021/10/11 02:24:02;;;;;;;17.45;15.63;;;1.10;99.90;;;;;;4954983;29;20039;-75
2021/10/11 02:26:28;;;;;;;16.45;14.38;;;1.20;99.90;;;;;;4954746;29;20457;-75
2021/10/11 02:28:53;;;;;;;18.08;16.27;;;1.30;99.90;;;;;;4954688;28;20031;-73
2021/10/11 02:31:19;;;;;;;15.13;13.63;;;1.20;99.90;;;;;;4937448;29;20027;-73
2021/10/11 02:33:45;;;;;;;15.13;13.63;;;1.20;99.90;;;;;;4954717;28;20023;-73
2021/10/11 02:36:11;;;;;;;14.02;12.30;;;1.20;99.90;;;;;;4940858;29;20175;-74
2021/10/11 02:38:37;;;;;;;12.63;11.32;;;1.30;99.90;;;;;;4940780;29;20035;-75
2021/10/11 02:41:02;;;;;;;13.40;11.88;;;1.40;99.90;;;;;;4954610;29;20039;-75
2021/10/11 02:43:28;;;;;;;11.82;10.50;;;1.40;99.90;;;;;;4937286;29;20074;-73
2021/10/11 02:45:54;;;;;;;12.82;11.48;;;1.60;99.90;;;;;;4938182;29;20090;-74
2021/10/11 02:48:19;;;;;;;14.23;11.90;;;1.60;99.90;;;;;;4938889;28;20027;-74
2021/10/11 02:50:45;;;;;;;12.85;11.45;;;1.60;99.90;;;;;;4937348;29;20091;-74
2021/10/11 02:53:10;;;;;;;14.15;12.30;;;1.60;99.90;;;;;;4954501;28;20031;-76
2021/10/11 02:55:36;;;;;;;14.52;12.98;;;1.80;99.90;;;;;;4954556;29;20552;-75
2021/10/11 02:58:01;;;;;;;14.43;12.32;;;1.70;99.90;;;;;;4954220;28;20504;-75
2021/10/11 03:00:27;;;;;;;15.60;13.10;;;1.70;99.90;;;;;;4954964;29;20037;-75
2021/10/11 03:02:52;;;;;;;17.95;14.32;;;1.80;99.90;;;;;;4954064;29;20405;-75
2021/10/11 03:05:18;;;;;;;16.45;13.82;;;1.70;99.90;;;;;;4939049;29;20027;-75
2021/10/11 03:07:44;;;;;;;16.00;12.50;;;1.60;99.90;;;;;;4954106;29;20027;-75
2021/10/11 03:10:09;;;;;;;15.23;13.63;;;1.70;99.90;;;;;;4962452;28;20085;-75
2021/10/11 03:12:35;;;;;;;48.50;38.47;;;1.70;99.90;;;;;;4940829;29;20478;-76
2021/10/11 03:15:02;;;;;;;89.00;62.80;;;1.40;99.90;;;;;;4954320;29;20029;-75
2021/10/11 03:17:28;;;;;;;27.95;23.92;;;1.10;99.90;;;;;;4966445;28;20089;-75
2021/10/11 03:19:53;;;;;;;19.30;15.73;;;0.90;99.90;;;;;;4953121;29;20031;-74
2021/10/11 03:22:19;;;;;;;30.35;27.30;;;0.60;99.90;;;;;;4940945;29;20062;-75
2021/10/11 03:24:44;;;;;;;15.95;14.30;;;0.70;99.90;;;;;;4940278;29;20141;-75
2021/10/11 03:27:10;;;;;;;16.40;14.75;;;0.50;99.90;;;;;;4953530;28;20063;-75
2021/10/11 03:29:35;;;;;;;18.15;14.88;;;0.60;99.90;;;;;;4953934;29;20024;-76
2021/10/11 03:32:01;;;;;;;17.45;13.07;;;0.50;99.90;;;;;;4952849;29;20035;-75
2021/10/11 03:34:26;;;;;;;17.77;15.90;;;0.50;99.90;;;;;;4939359;29;20024;-75
2021/10/11 03:36:52;;;;;;;20.35;18.30;;;0.50;99.90;;;;;;4936632;29;20122;-74
2021/10/11 03:39:17;;;;;;;21.35;19.15;;;0.40;99.90;;;;;;4945833;28;20036;-74
2021/10/11 03:41:43;;;;;;;20.65;18.23;;;0.30;99.90;;;;;;4934368;29;20474;-73
2021/10/11 03:44:08;;;;;;;19.35;17.02;;;0.10;99.90;;;;;;4925555;29;20027;-74
2021/10/11 03:46:34;;;;;;;19.52;17.50;;;0.20;99.90;;;;;;4953604;28;20106;-74
2021/10/11 03:49:02;;;;;;;20.92;17.67;;;0.40;99.90;;;;;;4953878;29;20421;-75
2021/10/11 03:51:27;;;;;;;20.55;17.40;;;0.50;99.90;;;;;;4951779;29;20039;-74
2021/10/11 03:53:53;;;;;;;17.55;15.70;;;0.40;99.90;;;;;;4925899;29;20024;-75
2021/10/11 03:56:18;;;;;;;21.13;15.68;;;0.60;99.90;;;;;;4940756;29;20027;-75
2021/10/11 03:58:44;;;;;;;23.45;20.40;;;0.80;99.90;;;;;;4928376;29;20030;-75
2021/10/11 04:01:09;;;;;;;20.92;16.50;;;0.90;99.90;;;;;;4946939;29;20541;-75
2021/10/11 04:03:35;;;;;;;17.05;15.27;;;0.90;99.90;;;;;;4925220;29;20487;-75
2021/10/11 04:06:01;;;;;;;17.33;13.77;;;0.90;99.90;;;;;;4939408;29;20044;-74
2021/10/11 04:08:38;;;;;;;16.15;13.27;;;1.10;99.90;;;;;;4942170;29;20063;-75
2021/10/11 04:11:10;;;;;;;16.27;14.02;;;1.10;99.90;;;;;;4951293;28;20023;-75
2021/10/11 04:13:35;;;;;;;16.60;14.43;;;1.20;99.90;;;;;;4936475;29;20157;-74
2021/10/11 04:16:01;;;;;;;15.30;13.70;;;1.10;99.90;;;;;;4940661;29;20086;-75
2021/10/11 04:18:27;;;;;;;14.45;12.95;;;1.20;99.90;;;;;;4943887;29;20062;-75
2021/10/11 04:20:52;;;;;;;15.55;13.73;;;1.30;99.90;;;;;;4946858;29;20028;-74
2021/10/11 04:23:18;;;;;;;20.92;17.15;;;1.20;99.90;;;;;;4946954;29;20537;-73
2021/10/11 04:25:44;;;;;;;18.48;15.60;;;1.20;99.90;;;;;;4957327;29;20066;-73
2021/10/11 04:28:11;;;;;;;20.73;15.57;;;1.20;99.90;;;;;;4957235;29;20091;-75
2021/10/11 04:30:37;;;;;;;24.17;20.75;;;1.30;99.90;;;;;;4944253;29;20031;-74
2021/10/11 04:33:03;;;;;;;19.08;16.92;;;1.20;99.90;;;;;;4930116;29;20028;-74
2021/10/11 04:35:29;;;;;;;19.00;17.10;;;1.20;99.90;;;;;;4950884;29;20091;-74
2021/10/11 04:37:54;;;;;;;24.23;21.63;;;1.30;99.90;;;;;;4947703;29;20050;-75
2021/10/11 04:40:20;;;;;;;30.50;27.60;;;1.20;99.90;;;;;;4944186;29;20031;-75
2021/10/11 04:42:46;;;;;;;22.58;19.70;;;1.30;99.90;;;;;;4930247;29;20071;-75
2021/10/11 04:45:12;;;;;;;17.23;15.43;;;1.30;99.90;;;;;;4950503;29;20490;-74
2021/10/11 04:47:38;;;;;;;15.77;12.98;;;1.20;99.90;;;;;;4930348;29;20133;-75
2021/10/11 04:50:05;;;;;;;16.05;14.18;;;1.10;99.90;;;;;;4956940;29;20020;-75
2021/10/11 04:52:30;;;;;;;19.38;14.65;;;1.20;99.90;;;;;;4956833;29;20386;-74
2021/10/11 04:54:57;;;;;;;18.75;15.95;;;1.20;99.90;;;;;;4956760;29;20019;-74
2021/10/11 04:57:22;;;;;;;18.05;14.13;;;1.20;99.90;;;;;;4964754;28;20023;-73
2021/10/11 04:59:48;;;;;;;20.20;17.20;;;1.20;99.90;;;;;;4953368;29;20556;-74
2021/10/11 05:02:14;;;;;;;20.50;15.82;;;1.10;99.90;;;;;;4947160;29;20028;-75
2021/10/11 05:04:39;;;;;;;28.15;23.42;;;1.10;99.90;;;;;;4944286;29;20027;-74
2021/10/11 05:07:05;;;;;;;35.13;27.83;;;1.00;99.90;;;;;;4930796;29;20039;-74
2021/10/11 05:09:30;;;;;;;53.00;41.33;;;1.10;99.90;;;;;;4936962;29;20038;-74
2021/10/11 05:11:57;;;;;;;44.22;34.42;;;1.00;99.90;;;;;;4946380;29;20020;-74
2021/10/11 05:14:23;;;;;;;30.58;24.58;;;1.00;99.90;;;;;;4953761;29;20505;-74
2021/10/11 05:16:48;;;;;;;21.30;18.05;;;1.10;99.90;;;;;;4929636;29;20039;-75
2021/10/11 05:19:14;;;;;;;20.13;15.45;;;1.20;99.90;;;;;;4950350;29;20035;-74
2021/10/11 05:21:40;;;;;;;16.70;14.93;;;1.40;99.90;;;;;;4929363;29;20123;-75
2021/10/11 05:24:06;;;;;;;19.13;14.60;;;1.40;99.90;;;;;;4953542;29;20099;-75
2021/10/11 05:26:31;;;;;;;15.98;14.20;;;1.50;99.90;;;;;;4946077;29;20493;-75
2021/10/11 05:28:58;;;;;;;15.43;13.90;;;1.50;99.90;;;;;;4926412;29;20083;-75
2021/10/11 05:31:24;;;;;;;19.27;15.00;;;1.60;99.90;;;;;;4946564;29;20020;-75
2021/10/11 05:33:50;;;;;;;18.85;16.85;;;1.60;99.90;;;;;;4932299;29;20024;-74
2021/10/11 05:36:16;;;;;;;19.17;17.25;;;1.20;99.90;;;;;;4946067;29;20395;-75
2021/10/11 05:38:41;;;;;;;21.10;18.83;;;0.90;99.90;;;;;;4943204;29;20475;-74
2021/10/11 05:41:07;;;;;;;20.95;16.67;;;0.90;99.90;;;;;;4946620;29;20036;-74
2021/10/11 05:43:33;;;;;;;18.60;16.42;;;1.10;99.90;;;;;;4934929;29;20042;-74
2021/10/11 05:45:58;;;;;;;20.13;16.92;;;0.90;99.90;;;;;;4938666;29;20031;-75
2021/10/11 05:48:24;;;;;;;21.23;18.27;;;0.90;99.90;;;;;;4953377;29;20478;-74
2021/10/11 05:50:49;;;;;;;19.10;16.58;;;1.10;99.90;;;;;;4945383;29;20027;-74
2021/10/11 05:53:15;;;;;;;22.30;18.65;;;1.20;99.90;;;;;;4942926;29;20075;-73
2021/10/11 05:55:40;;;;;;;26.27;20.23;;;1.30;99.90;;;;;;4947079;29;20103;-72
2021/10/11 05:58:06;;;;;;;20.67;18.58;;;1.20;99.90;;;;;;4949327;29;20046;-74
2021/10/11 06:00:31;;;;;;;21.73;17.55;;;1.10;99.90;;;;;;4944806;29;20114;-73
2021/10/11 06:02:57;;;;;;;22.08;19.65;;;1.40;99.90;;;;;;4936287;29;20038;-74
2021/10/11 06:05:22;;;;;;;18.55;16.55;;;1.40;99.90;;;;;;4927953;29;20078;-74
2021/10/11 06:07:48;;;;;;;20.27;18.25;;;1.60;99.90;;;;;;4942351;29;20028;-74
2021/10/11 06:10:13;;;;;;;33.42;30.05;;;1.60;99.90;;;;;;4955384;29;20478;-74
2021/10/11 06:12:40;;;;;;;34.30;29.65;;;1.60;99.90;;;;;;4937870;29;20027;-75
2021/10/11 06:15:06;;;;;;;30.90;27.55;;;1.70;99.90;;;;;;4946202;29;20068;-75
2021/10/11 06:17:32;;;;;;;27.75;24.48;;;1.80;99.90;;;;;;4948855;29;20036;-75
2021/10/11 06:19:57;;;;;;;25.00;22.05;;;1.70;99.90;;;;;;4945456;29;20115;-74
2021/10/11 06:22:23;;;;;;;27.50;24.63;;;1.90;99.90;;;;;;4925221;29;20019;-74
2021/10/11 06:24:48;;;;;;;27.30;24.60;;;1.90;99.90;;;;;;4955384;29;20072;-74
2021/10/11 06:27:14;;;;;;;26.65;23.98;;;1.90;99.90;;;;;;4922064;29;20122;-74
2021/10/11 06:29:39;;;;;;;27.58;22.88;;;2.10;99.90;;;;;;4944914;29;20548;-75
2021/10/11 06:32:05;;;;;;;29.75;25.17;;;2.10;99.90;;;;;;4954564;29;20481;-74
2021/10/11 06:34:31;;;;;;;28.23;24.98;;;2.10;99.90;;;;;;4954883;28;20035;-74
2021/10/11 06:36:56;;;;;;;72.13;59.00;;;2.10;99.90;;;;;;4959212;28;20027;-74
2021/10/11 06:39:22;;;;;;;89.00;66.38;;;2.20;99.90;;;;;;4946300;29;20034;-74
2021/10/11 06:41:48;;;;;;;109.60;79.18;;;2.30;99.90;;;;;;4942425;28;20473;-74
2021/10/11 06:44:13;;;;;;;24.75;22.08;;;2.30;99.90;;;;;;4939707;29;20382;-75
2021/10/11 06:46:39;;;;;;;20.55;17.63;;;2.30;99.90;;;;;;4948506;28;20069;-74
2021/10/11 06:49:04;;;;;;;21.13;18.33;;;2.00;99.90;;;;;;4954655;29;20118;-75
2021/10/11 06:51:30;;;;;;;21.98;19.42;;;2.00;99.90;;;;;;4924501;29;20026;-74
2021/10/11 06:53:55;;;;;;;39.25;28.42;;;2.10;99.90;;;;;;4954324;29;20019;-74
2021/10/11 06:56:21;;;;;;;38.10;29.92;;;2.30;99.90;;;;;;4954443;29;20035;-75
2021/10/11 06:58:46;;;;;;;95.55;69.00;;;2.40;99.90;;;;;;4937704;29;20042;-75
2021/10/11 07:01:12;;;;;;;53.38;42.15;;;2.40;99.90;;;;;;4954504;29;20098;-74
2021/10/11 07:03:38;;;;;;;43.88;37.13;;;2.60;99.90;;;;;;4937195;29;20027;-75
2021/10/11 07:06:07;;;;;;;29.60;25.95;;;2.70;99.90;;;;;;4954467;29;20505;-75
2021/10/11 07:08:33;;;;;;;24.13;21.35;;;3.10;99.90;;;;;;4929692;29;20020;-75
2021/10/11 07:10:59;;;;;;;21.17;18.10;;;3.00;99.90;;;;;;4953012;29;20038;-74
2021/10/11 07:13:25;;;;;;;21.25;18.90;;;3.00;99.90;;;;;;4954145;29;20027;-74
2021/10/11 07:15:52;;;;;;;20.02;17.27;;;3.20;99.90;;;;;;4952116;29;20031;-74
2021/10/11 07:18:17;;;;;;;20.27;18.15;;;3.40;99.90;;;;;;4943719;29;20031;-74
2021/10/11 07:20:45;;;;;;;21.38;18.95;;;3.50;99.90;;;;;;4921595;29;20622;-74
2021/10/11 07:23:12;;;;;;;21.05;18.23;;;3.70;99.90;;;;;;4926694;29;20059;-75
2021/10/11 07:25:38;;;;;;;21.48;17.73;;;3.70;99.90;;;;;;4934355;29;20023;-75
2021/10/11 07:28:03;;;;;;;21.40;18.23;;;3.90;99.90;;;;;;4943502;29;20038;-75
2021/10/11 07:30:29;;;;;;;23.80;18.45;;;4.00;99.90;;;;;;4940967;29;20024;-75
2021/10/11 07:32:55;;;;;;;19.23;17.17;;;3.90;99.90;;;;;;4947218;29;20130;-74
2021/10/11 07:35:20;;;;;;;20.25;16.80;;;4.10;99.90;;;;;;4951476;29;20058;-73
2021/10/11 07:37:50;;;;;;;20.98;16.85;;;4.20;99.90;;;;;;4947453;29;20055;-75
2021/10/11 07:40:17;;;;;;;18.98;16.77;;;4.30;99.90;;;;;;4933574;29;20050;-75
2021/10/11 07:42:42;;;;;;;20.40;16.25;;;4.50;99.90;;;;;;4943593;29;20494;-75
2021/10/11 07:45:08;;;;;;;19.63;17.50;;;4.60;99.90;;;;;;4936719;29;20117;-74
2021/10/11 07:47:33;;;;;;;21.08;17.05;;;4.70;99.90;;;;;;4953720;29;20031;-75
2021/10/11 07:49:59;;;;;;;20.30;17.17;;;4.80;99.90;;;;;;4938789;29;20521;-74
2021/10/11 07:52:24;;;;;;;21.77;17.02;;;5.00;99.90;;;;;;4943359;29;20031;-74
2021/10/11 07:54:50;;;;;;;19.77;15.77;;;5.20;99.90;;;;;;4923847;29;20075;-74
2021/10/11 07:57:16;;;;;;;21.23;17.27;;;5.30;99.90;;;;;;4928211;29;20030;-73
2021/10/11 07:59:41;;;;;;;17.40;15.48;;;5.20;99.90;;;;;;4930310;29;20031;-73
2021/10/11 08:02:07;;;;;;;23.15;16.20;;;5.20;99.90;;;;;;4925534;29;20042;-74
2021/10/11 08:04:32;;;;;;;20.83;17.58;;;5.20;99.90;;;;;;4923740;29;20046;-74
2021/10/11 08:06:58;;;;;;;18.08;15.95;;;5.30;99.90;;;;;;4948566;29;20035;-74
2021/10/11 08:09:23;;;;;;;20.63;16.20;;;5.40;99.90;;;;;;4920826;29;20055;-74
2021/10/11 08:11:49;;;;;;;20.92;16.80;;;5.50;99.90;;;;;;4943279;29;20023;-74
2021/10/11 08:14:15;;;;;;;17.63;15.73;;;5.50;99.90;;;;;;4923699;29;20046;-75
2021/10/11 08:16:41;;;;;;;27.92;21.65;;;5.70;99.90;;;;;;4944783;29;20029;-75
2021/10/11 08:19:07;;;;;;;20.08;16.67;;;5.90;99.90;;;;;;4936699;29;20063;-74
2021/10/11 08:21:33;;;;;;;19.58;16.17;;;6.00;99.90;;;;;;4944859;29;20031;-75
2021/10/11 08:23:59;;;;;;;21.58;17.77;;;6.10;99.90;;;;;;4936432;29;20514;-75
2021/10/11 08:26:25;;;;;;;21.70;16.65;;;6.20;99.90;;;;;;4944834;28;20039;-75
2021/10/11 08:28:51;;;;;;;22.88;16.42;;;6.20;99.90;;;;;;4936791;29;20031;-75
2021/10/11 08:31:17;;;;;;;19.40;15.90;;;6.30;99.90;;;;;;4944683;29;20035;-75
2021/10/11 08:33:43;;;;;;;19.92;15.10;;;6.40;99.90;;;;;;4919584;29;20020;-75
2021/10/11 08:36:12;;;;;;;20.88;15.55;;;6.40;99.90;;;;;;4944645;29;20111;-76
2021/10/11 08:38:38;;;;;;;17.60;14.55;;;6.40;99.90;;;;;;4920013;29;20050;-75
2021/10/11 08:41:07;;;;;;;18.00;14.85;;;6.40;99.90;;;;;;4943961;29;20487;-75
2021/10/11 08:43:37;;;;;;;18.48;14.68;;;6.60;99.90;;;;;;4947184;29;20036;-75
2021/10/11 08:46:05;;;;;;;18.02;14.30;;;6.60;99.90;;;;;;4934197;29;20083;-74
2021/10/11 08:48:31;;;;;;;17.13;14.50;;;6.60;99.90;;;;;;4947045;29;20439;-75
2021/10/11 08:50:57;;;;;;;19.00;14.65;;;6.60;99.90;;;;;;4944500;29;20028;-75
2021/10/11 08:53:23;;;;;;;18.42;13.75;;;6.80;99.90;;;;;;4949454;29;20120;-75
2021/10/11 08:55:49;;;;;;;17.05;14.48;;;7.10;99.90;;;;;;4927141;29;20098;-75
2021/10/11 08:58:14;;;;;;;17.60;14.10;;;7.20;99.90;;;;;;4936634;29;20419;-75
2021/10/11 09:00:40;;;;;;;15.73;13.70;;;7.20;99.90;;;;;;4944096;29;20430;-75
2021/10/11 09:03:09;;;;;;;17.17;13.68;;;7.10;99.90;;;;;;4923741;29;20058;-75
2021/10/11 09:05:37;;;;;;;19.70;13.93;;;7.20;99.90;;;;;;4942466;29;20027;-75
2021/10/11 09:08:14;;;;;;;18.48;13.32;;;7.20;99.90;;;;;;4952082;28;20063;-75
2021/10/11 09:10:52;;;;;;;17.73;13.57;;;7.20;99.90;;;;;;4950962;28;20027;-75
2021/10/11 09:13:26;;;;;;;16.45;13.18;;;7.40;99.90;;;;;;4919884;29;20019;-75
2021/10/11 09:16:18;;;;;;;18.15;12.95;;;7.50;99.90;;;;;;4952716;29;20035;-75
2021/10/11 09:18:52;;;;;;;16.48;13.13;;;7.60;99.90;;;;;;4944155;29;20028;-75
2021/10/11 09:21:29;;;;;;;22.63;13.02;;;7.50;99.90;;;;;;4939115;29;20042;-75
2021/10/11 09:24:03;;;;;;;16.83;12.95;;;7.60;99.90;;;;;;4937264;29;20023;-75
2021/10/11 09:26:40;;;;;;;17.83;13.73;;;7.60;99.90;;;;;;4946400;29;20069;-75
2021/10/11 09:29:06;;;;;;;17.63;13.23;;;8.00;99.90;;;;;;4926277;29;20446;-75
2021/10/11 09:31:37;;;;;;;18.98;13.73;;;8.10;99.90;;;;;;4945080;29;20035;-75
2021/10/11 09:34:02;;;;;;;19.77;13.75;;;8.00;99.90;;;;;;4932558;29;20023;-75
2021/10/11 09:36:29;;;;;;;17.05;13.27;;;8.30;99.90;;;;;;4936974;29;20042;-75
2021/10/11 09:39:03;;;;;;;19.13;14.00;;;8.60;99.90;;;;;;4942021;29;20024;-75
2021/10/11 09:41:28;;;;;;;16.75;12.98;;;8.60;99.90;;;;;;4943291;29;20028;-75
2021/10/11 09:43:55;;;;;;;20.35;12.70;;;8.70;99.90;;;;;;4938538;29;20038;-75
2021/10/11 09:46:23;;;;;;;20.48;13.85;;;8.60;99.90;;;;;;4943287;29;20032;-74
2021/10/11 09:48:58;;;;;;;19.25;13.05;;;8.50;99.90;;;;;;4949424;29;20427;-75
2021/10/11 09:51:25;;;;;;;17.15;13.45;;;8.80;99.90;;;;;;4949298;28;20024;-75
2021/10/11 09:53:52;;;;;;;16.00;12.82;;;8.70;99.90;;;;;;4944480;29;20670;-75
2021/10/11 09:56:18;;;;;;;18.35;13.30;;;8.80;99.90;;;;;;4942669;29;20034;-75
2021/10/11 09:58:44;;;;;;;17.45;13.13;;;9.00;99.90;;;;;;4930643;29;20035;-76
2021/10/11 10:01:10;;;;;;;17.83;13.50;;;9.20;99.90;;;;;;4950575;29;20031;-75
2021/10/11 10:03:36;;;;;;;16.23;13.70;;;9.40;99.90;;;;;;4947976;29;20066;-75
2021/10/11 10:06:06;;;;;;;21.90;13.43;;;9.30;99.90;;;;;;4949316;29;20031;-75
2021/10/11 10:08:34;;;;;;;20.98;15.00;;;9.30;99.90;;;;;;4944597;29;20030;-75
2021/10/11 10:11:01;;;;;;;20.60;14.77;;;9.40;99.90;;;;;;4955449;29;20047;-75
2021/10/11 10:13:29;;;;;;;19.30;14.30;;;9.30;99.90;;;;;;4946581;29;20461;-75
2021/10/11 10:16:07;;;;;;;17.60;13.75;;;9.40;99.90;;;;;;4931873;29;20024;-75
2021/10/11 10:18:38;;;;;;;19.77;14.13;;;9.70;99.90;;;;;;4946567;28;20481;-75
2021/10/11 10:21:04;;;;;;;16.40;12.85;;;9.90;99.90;;;;;;4937680;29;20035;-75
2021/10/11 10:23:36;;;;;;;17.30;13.63;;;10.00;99.90;;;;;;4947085;29;20394;-75
2021/10/11 10:26:09;;;;;;;21.50;14.98;;;10.10;99.90;;;;;;4942359;29;20046;-75
2021/10/11 10:28:50;;;;;;;23.40;14.82;;;10.50;99.90;;;;;;4942467;29;20028;-75
2021/10/11 10:31:27;;;;;;;21.77;14.95;;;10.60;99.90;;;;;;4944168;29;20019;-75
2021/10/11 10:33:53;;;;;;;18.17;13.48;;;10.60;99.90;;;;;;4951951;29;20020;-76
2021/10/11 10:36:23;;;;;;;20.92;14.07;;;10.60;99.90;;;;;;4944099;29;20037;-75
2021/10/11 10:39:07;;;;;;;19.13;14.40;;;10.60;99.90;;;;;;4924097;29;20438;-75
2021/10/11 10:41:35;;;;;;;17.92;14.38;;;10.50;99.90;;;;;;4954864;29;20031;-75
2021/10/11 10:44:15;;;;;;;19.30;15.48;;;10.40;99.90;;;;;;4924956;29;20038;-75
2021/10/11 10:46:56;;;;;;;25.58;15.90;;;10.30;99.90;;;;;;4952853;29;20031;-75
2021/10/11 10:49:47;;;;;;;20.58;17.05;;;10.40;99.90;;;;;;4928723;29;20023;-75
2021/10/11 10:52:16;;;;;;;23.25;17.25;;;10.30;99.90;;;;;;4933223;29;20035;-75
2021/10/11 10:54:45;;;;;;;23.55;17.65;;;10.30;99.90;;;;;;4954489;29;20050;-75
2021/10/11 10:57:13;;;;;;;21.95;16.25;;;10.30;99.90;;;;;;4929671;29;20028;-75
2021/10/11 10:59:40;;;;;;;21.60;17.63;;;10.20;99.90;;;;;;4948244;29;20063;-75
2021/10/11 11:02:09;;;;;;;23.23;17.38;;;10.20;99.90;;;;;;4942743;29;20023;-75
2021/10/11 11:04:36;;;;;;;23.38;18.48;;;10.10;99.90;;;;;;4950635;29;20035;-75
2021/10/11 11:07:08;;;;;;;26.90;19.60;;;10.20;99.90;;;;;;4945217;29;20103;-75
2021/10/11 11:09:44;;;;;;;22.45;17.58;;;10.20;99.90;;;;;;4951442;29;20038;-75
2021/10/11 11:12:12;;;;;;;24.52;19.75;;;10.20;99.90;;;;;;4950332;28;20022;-75
2021/10/11 11:14:43;;;;;;;26.60;19.00;;;10.10;99.90;;;;;;4965632;28;20381;-75
2021/10/11 11:17:13;;;;;;;27.25;19.73;;;10.20;99.90;;;;;;4969561;28;20075;-75
2021/10/11 11:19:43;;;;;;;26.50;19.27;;;10.20;99.90;;;;;;4956515;28;20033;-75
2021/10/11 11:22:18;;;;;;;28.70;21.55;;;10.20;99.90;;;;;;4947089;28;20023;-75
2021/10/11 11:24:50;;;;;;;26.70;21.05;;;10.30;99.90;;;;;;4965228;28;20030;-75
2021/10/11 11:27:31;;;;;;;26.58;20.92;;;10.40;99.90;;;;;;4958215;28;20035;-75
2021/10/11 11:29:58;;;;;;;27.90;22.00;;;10.40;99.90;;;;;;4948170;28;20078;-75
2021/10/11 11:32:24;;;;;;;30.05;22.20;;;10.40;99.90;;;;;;4961510;28;20027;-75
2021/10/11 11:34:50;;;;;;;31.02;23.35;;;10.30;99.90;;;;;;4965391;28;20034;-75
2021/10/11 11:37:16;;;;;;;29.10;23.33;;;10.30;99.90;;;;;;4952923;28;20035;-75
2021/10/11 11:39:42;;;;;;;28.25;22.83;;;10.20;99.90;;;;;;4953085;28;20043;-75
2021/10/11 11:42:08;;;;;;;30.00;21.85;;;10.30;99.90;;;;;;4960174;28;20549;-75
2021/10/11 11:44:33;;;;;;;31.40;22.25;;;10.20;99.90;;;;;;4936814;29;20023;-75
2021/10/11 11:47:11;;;;;;;33.92;24.85;;;10.20;99.90;;;;;;4961702;28;20082;-75
2021/10/11 11:49:41;;;;;;;33.10;23.40;;;10.20;99.90;;;;;;4954545;28;20084;-75
2021/10/11 11:52:09;;;;;;;31.17;22.80;;;10.20;99.90;;;;;;4956904;28;20027;-75
2021/10/11 11:54:37;;;;;;;34.38;22.92;;;10.10;99.90;;;;;;4957135;28;20025;-75
2021/10/11 11:57:03;;;;;;;29.30;22.63;;;10.00;99.90;;;;;;4961374;28;20098;-75
2021/10/11 11:59:29;;;;;;;29.50;21.13;;;10.10;99.90;;;;;;4966952;28;20478;-75
2021/10/11 12:01:57;;;;;;;27.63;20.90;;;10.10;99.90;;;;;;4960957;28;20079;-75
2021/10/11 12:04:23;;;;;;;29.10;21.95;;;10.10;99.90;;;;;;4953732;29;20102;-76
2021/10/11 12:06:48;;;;;;;28.98;21.08;;;10.10;99.90;;;;;;4946784;29;20118;-75
2021/10/11 12:09:21;;;;;;;31.63;21.30;;;10.10;99.90;;;;;;4954116;28;20031;-74
2021/10/11 12:11:47;;;;;;;27.85;20.38;;;10.10;99.90;;;;;;4947124;29;20363;-74
2021/10/11 12:14:14;;;;;;;27.50;20.65;;;10.10;99.90;;;;;;4934521;29;20023;-75
2021/10/11 12:16:39;;;;;;;27.80;19.83;;;10.20;99.90;;;;;;4942873;29;20054;-75
2021/10/11 12:19:05;;;;;;;25.50;20.38;;;10.10;99.90;;;;;;4940722;29;20063;-76
2021/10/11 12:21:39;;;;;;;29.75;21.27;;;10.20;99.90;;;;;;4945323;29;20032;-75
2021/10/11 12:24:13;;;;;;;29.02;21.17;;;10.20;99.90;;;;;;4950279;29;20031;-75
2021/10/11 12:26:54;;;;;;;29.13;20.27;;;10.20;99.90;;;;;;4925932;29;20039;-76
2021/10/11 12:29:21;;;;;;;29.38;20.08;;;10.20;99.90;;;;;;4947383;29;20023;-75
2021/10/11 12:32:03;;;;;;;30.50;23.25;;;10.20;99.90;;;;;;4946497;29;20077;-75
2021/10/11 12:34:41;;;;;;;32.72;24.58;;;10.30;99.90;;;;;;4942403;29;20438;-76